sensor_id;sensor_type;location;lat;lon;timestamp;P1;durP1;ratioP1;P2;durP2;ratioP2
18443;SDS011;9350;53.176;8.194;2022-10-17T00:00:09;9.65;;;5.03;;
18443;SDS011;9350;53.176;8.194;2022-10-17T00:02:36;11.75;;;5.10;;
18443;SDS011;9350;53.176;8.194;2022-10-17T00:05:03;8.93;;;5.40;;
18443;SDS011;9350;53.176;8.194;2022-10-17T00:07:30;11.02;;;5.22;;
18443;SDS011;9350;53.176;8.194;2022-10-17T00:09:57;12.65;;;5.72;;
18443;SDS011;9350;53.176;8.194;2022-10-17T00:12:25;12.50;;;5.90;;
18443;SDS011;9350;53.176;8.194;2022-10-17T00:14:51;11.13;;;5.38;;
18443;SDS011;9350;53.176;8.194;2022-10-17T00:17:18;12.10;;;5.95;;
18443;SDS011;9350;53.176;8.194;2022-10-17T00:19:45;11.07;;;5.90;;
18443;SDS011;9350;53.176;8.194;2022-10-17T00:22:12;11.73;;;5.47;;
18443;SDS011;9350;53.176;8.194;2022-10-17T00:24:38;11.43;;;5.00;;
18443;SDS011;9350;53.176;8.194;2022-10-17T00:27:05;11.70;;;5.80;;
18443;SDS011;9350;53.176;8.194;2022-10-17T00:29:33;12.25;;;5.28;;
18443;SDS011;9350;53.176;8.194;2022-10-17T00:32:00;13.05;;;5.80;;
18443;SDS011;9350;53.176;8.194;2022-10-17T00:34:27;13.93;;;5.53;;
18443;SDS011;9350;53.176;8.194;2022-10-17T00:36:55;10.77;;;5.88;;
18443;SDS011;9350;53.176;8.194;2022-10-17T00:39:22;12.85;;;5.65;;
18443;SDS011;9350;53.176;8.194;2022-10-17T00:41:49;9.98;;;5.30;;
18443;SDS011;9350;53.176;8.194;2022-10-17T00:47:27;11.55;;;5.60;;
18443;SDS011;9350;53.176;8.194;2022-10-17T00:49:55;12.55;;;5.07;;
18443;SDS011;9350;53.176;8.194;2022-10-17T00:52:24;9.63;;;5.43;;
18443;SDS011;9350;53.176;8.194;2022-10-17T00:54:53;16.55;;;6.15;;
18443;SDS011;9350;53.176;8.194;2022-10-17T00:57:23;8.43;;;5.32;;
18443;SDS011;9350;53.176;8.194;2022-10-17T00:59:51;10.82;;;5.10;;
18443;SDS011;9350;53.176;8.194;2022-10-17T01:02:23;10.52;;;5.20;;
18443;SDS011;9350;53.176;8.194;2022-10-17T01:04:50;7.65;;;4.72;;
18443;SDS011;9350;53.176;8.194;2022-10-17T01:07:19;10.13;;;4.53;;
18443;SDS011;9350;53.176;8.194;2022-10-17T01:09:46;8.20;;;4.90;;
18443;SDS011;9350;53.176;8.194;2022-10-17T01:12:15;10.63;;;4.90;;
18443;SDS011;9350;53.176;8.194;2022-10-17T01:14:46;8.95;;;5.13;;
18443;SDS011;9350;53.176;8.194;2022-10-17T01:17:25;8.90;;;5.10;;
18443;SDS011;9350;53.176;8.194;2022-10-17T01:20:13;9.45;;;4.63;;
18443;SDS011;9350;53.176;8.194;2022-10-17T01:23:23;11.43;;;4.82;;
18443;SDS011;9350;53.176;8.194;2022-10-17T01:26:00;9.82;;;4.68;;
18443;SDS011;9350;53.176;8.194;2022-10-17T01:28:57;10.20;;;4.82;;
18443;SDS011;9350;53.176;8.194;2022-10-17T01:31:36;8.82;;;5.45;;
18443;SDS011;9350;53.176;8.194;2022-10-17T01:34:09;7.75;;;4.75;;
18443;SDS011;9350;53.176;8.194;2022-10-17T01:36:45;7.93;;;5.80;;
18443;SDS011;9350;53.176;8.194;2022-10-17T01:39:16;9.30;;;4.97;;
18443;SDS011;9350;53.176;8.194;2022-10-17T01:41:49;14.30;;;5.03;;
18443;SDS011;9350;53.176;8.194;2022-10-17T01:44:21;12.23;;;5.65;;
18443;SDS011;9350;53.176;8.194;2022-10-17T01:46:56;6.63;;;4.97;;
18443;SDS011;9350;53.176;8.194;2022-10-17T01:49:27;13.48;;;5.78;;
18443;SDS011;9350;53.176;8.194;2022-10-17T01:51:56;10.50;;;5.20;;
18443;SDS011;9350;53.176;8.194;2022-10-17T01:54:29;8.60;;;5.20;;
18443;SDS011;9350;53.176;8.194;2022-10-17T01:56:58;12.80;;;5.05;;
18443;SDS011;9350;53.176;8.194;2022-10-17T01:59:30;10.23;;;5.53;;
18443;SDS011;9350;53.176;8.194;2022-10-17T02:02:02;10.48;;;5.07;;
18443;SDS011;9350;53.176;8.194;2022-10-17T02:04:31;7.50;;;5.10;;
18443;SDS011;9350;53.176;8.194;2022-10-17T02:07:04;9.32;;;5.43;;
18443;SDS011;9350;53.176;8.194;2022-10-17T02:09:31;7.47;;;5.15;;
18443;SDS011;9350;53.176;8.194;2022-10-17T02:12:11;7.53;;;4.47;;
18443;SDS011;9350;53.176;8.194;2022-10-17T02:14:56;6.45;;;4.60;;
18443;SDS011;9350;53.176;8.194;2022-10-17T02:17:37;6.90;;;4.63;;
18443;SDS011;9350;53.176;8.194;2022-10-17T02:20:15;8.57;;;4.78;;
18443;SDS011;9350;53.176;8.194;2022-10-17T02:22:50;10.25;;;5.28;;
18443;SDS011;9350;53.176;8.194;2022-10-17T02:25:22;6.68;;;4.72;;
18443;SDS011;9350;53.176;8.194;2022-10-17T02:27:58;5.72;;;4.68;;
18443;SDS011;9350;53.176;8.194;2022-10-17T02:30:33;8.45;;;5.10;;
18443;SDS011;9350;53.176;8.194;2022-10-17T02:33:04;7.43;;;5.32;;
18443;SDS011;9350;53.176;8.194;2022-10-17T02:35:35;8.25;;;5.45;;
18443;SDS011;9350;53.176;8.194;2022-10-17T02:38:05;10.73;;;4.88;;
18443;SDS011;9350;53.176;8.194;2022-10-17T02:40:35;6.53;;;4.80;;
18443;SDS011;9350;53.176;8.194;2022-10-17T02:43:04;8.15;;;4.78;;
18443;SDS011;9350;53.176;8.194;2022-10-17T02:45:31;6.05;;;5.15;;
18443;SDS011;9350;53.176;8.194;2022-10-17T02:48:01;12.15;;;5.57;;
18443;SDS011;9350;53.176;8.194;2022-10-17T02:50:34;11.07;;;5.03;;
18443;SDS011;9350;53.176;8.194;2022-10-17T02:53:10;7.68;;;5.15;;
18443;SDS011;9350;53.176;8.194;2022-10-17T02:55:42;7.55;;;5.38;;
18443;SDS011;9350;53.176;8.194;2022-10-17T02:58:16;7.80;;;4.93;;
18443;SDS011;9350;53.176;8.194;2022-10-17T03:00:45;9.05;;;4.93;;
18443;SDS011;9350;53.176;8.194;2022-10-17T03:03:21;7.60;;;4.90;;
18443;SDS011;9350;53.176;8.194;2022-10-17T03:05:51;7.50;;;4.40;;
18443;SDS011;9350;53.176;8.194;2022-10-17T03:08:18;6.75;;;4.85;;
18443;SDS011;9350;53.176;8.194;2022-10-17T03:10:44;6.57;;;4.60;;
18443;SDS011;9350;53.176;8.194;2022-10-17T03:13:12;13.13;;;5.03;;
18443;SDS011;9350;53.176;8.194;2022-10-17T03:15:39;6.20;;;4.50;;
18443;SDS011;9350;53.176;8.194;2022-10-17T03:18:06;6.85;;;5.18;;
18443;SDS011;9350;53.176;8.194;2022-10-17T03:20:34;9.00;;;4.82;;
18443;SDS011;9350;53.176;8.194;2022-10-17T03:23:01;7.88;;;4.85;;
18443;SDS011;9350;53.176;8.194;2022-10-17T03:25:27;6.45;;;4.43;;
18443;SDS011;9350;53.176;8.194;2022-10-17T03:27:56;5.43;;;4.72;;
18443;SDS011;9350;53.176;8.194;2022-10-17T03:30:24;8.25;;;4.72;;
18443;SDS011;9350;53.176;8.194;2022-10-17T03:32:51;9.27;;;4.90;;
18443;SDS011;9350;53.176;8.194;2022-10-17T03:35:18;10.52;;;4.60;;
18443;SDS011;9350;53.176;8.194;2022-10-17T03:37:46;6.32;;;4.68;;
18443;SDS011;9350;53.176;8.194;2022-10-17T03:40:13;6.47;;;5.03;;
18443;SDS011;9350;53.176;8.194;2022-10-17T03:42:40;6.90;;;4.60;;
18443;SDS011;9350;53.176;8.194;2022-10-17T03:45:07;7.57;;;5.05;;
18443;SDS011;9350;53.176;8.194;2022-10-17T03:47:34;7.82;;;4.38;;
18443;SDS011;9350;53.176;8.194;2022-10-17T03:50:01;5.30;;;4.70;;
18443;SDS011;9350;53.176;8.194;2022-10-17T03:52:28;7.95;;;5.13;;
18443;SDS011;9350;53.176;8.194;2022-10-17T03:54:56;10.15;;;4.78;;
18443;SDS011;9350;53.176;8.194;2022-10-17T03:57:22;7.25;;;4.97;;
18443;SDS011;9350;53.176;8.194;2022-10-17T03:59:49;8.25;;;5.07;;
18443;SDS011;9350;53.176;8.194;2022-10-17T04:02:16;6.40;;;4.82;;
18443;SDS011;9350;53.176;8.194;2022-10-17T04:04:43;13.63;;;5.13;;
18443;SDS011;9350;53.176;8.194;2022-10-17T04:07:09;7.60;;;5.20;;
18443;SDS011;9350;53.176;8.194;2022-10-17T04:09:36;9.93;;;5.28;;
18443;SDS011;9350;53.176;8.194;2022-10-17T04:12:04;8.20;;;5.07;;
18443;SDS011;9350;53.176;8.194;2022-10-17T04:14:31;8.93;;;5.10;;
18443;SDS011;9350;53.176;8.194;2022-10-17T04:16:58;5.53;;;4.85;;
18443;SDS011;9350;53.176;8.194;2022-10-17T04:19:24;8.07;;;5.18;;
18443;SDS011;9350;53.176;8.194;2022-10-17T04:21:51;6.72;;;4.88;;
18443;SDS011;9350;53.176;8.194;2022-10-17T04:24:18;9.07;;;5.22;;
18443;SDS011;9350;53.176;8.194;2022-10-17T04:26:44;12.10;;;5.50;;
18443;SDS011;9350;53.176;8.194;2022-10-17T04:29:15;8.60;;;5.70;;
18443;SDS011;9350;53.176;8.194;2022-10-17T04:31:42;5.85;;;5.32;;
18443;SDS011;9350;53.176;8.194;2022-10-17T04:34:08;6.80;;;5.18;;
18443;SDS011;9350;53.176;8.194;2022-10-17T04:36:38;7.35;;;5.53;;
18443;SDS011;9350;53.176;8.194;2022-10-17T04:39:04;10.88;;;5.57;;
18443;SDS011;9350;53.176;8.194;2022-10-17T04:41:31;6.45;;;5.43;;
18443;SDS011;9350;53.176;8.194;2022-10-17T04:43:58;9.63;;;5.57;;
18443;SDS011;9350;53.176;8.194;2022-10-17T04:46:26;11.05;;;5.80;;
18443;SDS011;9350;53.176;8.194;2022-10-17T04:48:53;6.53;;;5.85;;
18443;SDS011;9350;53.176;8.194;2022-10-17T04:51:19;6.50;;;5.80;;
18443;SDS011;9350;53.176;8.194;2022-10-17T04:53:46;12.63;;;5.90;;
18443;SDS011;9350;53.176;8.194;2022-10-17T04:56:14;8.98;;;6.20;;
18443;SDS011;9350;53.176;8.194;2022-10-17T04:58:42;6.53;;;5.75;;
18443;SDS011;9350;53.176;8.194;2022-10-17T05:01:10;7.18;;;5.75;;
18443;SDS011;9350;53.176;8.194;2022-10-17T05:03:39;11.05;;;5.47;;
18443;SDS011;9350;53.176;8.194;2022-10-17T05:06:06;10.35;;;5.85;;
18443;SDS011;9350;53.176;8.194;2022-10-17T05:08:34;6.07;;;5.53;;
18443;SDS011;9350;53.176;8.194;2022-10-17T05:11:01;7.47;;;5.57;;
18443;SDS011;9350;53.176;8.194;2022-10-17T05:13:29;7.45;;;6.38;;
18443;SDS011;9350;53.176;8.194;2022-10-17T05:15:57;9.68;;;6.03;;
18443;SDS011;9350;53.176;8.194;2022-10-17T05:18:25;9.60;;;6.30;;
18443;SDS011;9350;53.176;8.194;2022-10-17T05:20:53;8.20;;;5.57;;
18443;SDS011;9350;53.176;8.194;2022-10-17T05:23:20;9.90;;;6.13;;
18443;SDS011;9350;53.176;8.194;2022-10-17T05:25:47;7.53;;;6.32;;
18443;SDS011;9350;53.176;8.194;2022-10-17T05:28:18;12.18;;;6.80;;
18443;SDS011;9350;53.176;8.194;2022-10-17T05:30:45;10.63;;;6.05;;
18443;SDS011;9350;53.176;8.194;2022-10-17T05:33:11;8.43;;;6.22;;
18443;SDS011;9350;53.176;8.194;2022-10-17T05:35:38;7.25;;;6.28;;
18443;SDS011;9350;53.176;8.194;2022-10-17T05:38:06;9.32;;;6.78;;
18443;SDS011;9350;53.176;8.194;2022-10-17T05:40:33;9.50;;;6.38;;
18443;SDS011;9350;53.176;8.194;2022-10-17T05:42:59;7.97;;;7.07;;
18443;SDS011;9350;53.176;8.194;2022-10-17T05:45:26;10.98;;;7.05;;
18443;SDS011;9350;53.176;8.194;2022-10-17T05:47:53;10.15;;;6.18;;
18443;SDS011;9350;53.176;8.194;2022-10-17T05:50:19;8.48;;;6.65;;
18443;SDS011;9350;53.176;8.194;2022-10-17T05:52:51;10.48;;;6.90;;
18443;SDS011;9350;53.176;8.194;2022-10-17T05:55:19;11.05;;;7.20;;
18443;SDS011;9350;53.176;8.194;2022-10-17T05:57:46;9.23;;;7.18;;
18443;SDS011;9350;53.176;8.194;2022-10-17T06:00:13;9.50;;;7.07;;
18443;SDS011;9350;53.176;8.194;2022-10-17T06:02:40;9.63;;;7.30;;
18443;SDS011;9350;53.176;8.194;2022-10-17T06:05:07;15.38;;;7.60;;
18443;SDS011;9350;53.176;8.194;2022-10-17T06:07:34;11.10;;;6.75;;
18443;SDS011;9350;53.176;8.194;2022-10-17T06:10:01;12.23;;;7.15;;
18443;SDS011;9350;53.176;8.194;2022-10-17T06:12:29;10.25;;;6.47;;
18443;SDS011;9350;53.176;8.194;2022-10-17T06:14:56;10.27;;;7.38;;
18443;SDS011;9350;53.176;8.194;2022-10-17T06:17:22;11.88;;;7.10;;
18443;SDS011;9350;53.176;8.194;2022-10-17T06:19:49;9.60;;;7.32;;
18443;SDS011;9350;53.176;8.194;2022-10-17T06:22:16;13.70;;;6.63;;
18443;SDS011;9350;53.176;8.194;2022-10-17T06:24:42;9.45;;;7.40;;
18443;SDS011;9350;53.176;8.194;2022-10-17T06:27:09;10.63;;;7.10;;
18443;SDS011;9350;53.176;8.194;2022-10-17T06:29:37;9.93;;;7.30;;
18443;SDS011;9350;53.176;8.194;2022-10-17T06:32:04;12.15;;;7.65;;
18443;SDS011;9350;53.176;8.194;2022-10-17T06:34:31;10.43;;;7.55;;
18443;SDS011;9350;53.176;8.194;2022-10-17T06:36:58;10.55;;;7.00;;
18443;SDS011;9350;53.176;8.194;2022-10-17T06:39:25;10.40;;;7.70;;
18443;SDS011;9350;53.176;8.194;2022-10-17T06:41:57;12.45;;;7.90;;
18443;SDS011;9350;53.176;8.194;2022-10-17T06:44:24;8.80;;;7.30;;
18443;SDS011;9350;53.176;8.194;2022-10-17T06:46:55;9.15;;;7.35;;
18443;SDS011;9350;53.176;8.194;2022-10-17T06:49:22;12.63;;;7.22;;
18443;SDS011;9350;53.176;8.194;2022-10-17T06:51:49;10.10;;;7.07;;
18443;SDS011;9350;53.176;8.194;2022-10-17T06:54:16;10.93;;;7.35;;
18443;SDS011;9350;53.176;8.194;2022-10-17T06:56:42;12.10;;;6.80;;
18443;SDS011;9350;53.176;8.194;2022-10-17T06:59:09;8.60;;;6.30;;
18443;SDS011;9350;53.176;8.194;2022-10-17T07:01:36;9.10;;;6.57;;
18443;SDS011;9350;53.176;8.194;2022-10-17T07:04:04;9.25;;;6.70;;
18443;SDS011;9350;53.176;8.194;2022-10-17T07:06:31;11.25;;;6.90;;
18443;SDS011;9350;53.176;8.194;2022-10-17T07:08:58;9.38;;;6.43;;
18443;SDS011;9350;53.176;8.194;2022-10-17T07:11:26;14.15;;;7.57;;
18443;SDS011;9350;53.176;8.194;2022-10-17T07:13:53;12.05;;;6.95;;
18443;SDS011;9350;53.176;8.194;2022-10-17T07:16:20;10.93;;;7.45;;
18443;SDS011;9350;53.176;8.194;2022-10-17T07:18:47;9.10;;;7.28;;
18443;SDS011;9350;53.176;8.194;2022-10-17T07:21:16;9.13;;;7.75;;
18443;SDS011;9350;53.176;8.194;2022-10-17T07:23:43;11.18;;;7.95;;
18443;SDS011;9350;53.176;8.194;2022-10-17T07:26:10;11.73;;;7.55;;
18443;SDS011;9350;53.176;8.194;2022-10-17T07:28:40;10.93;;;8.05;;
18443;SDS011;9350;53.176;8.194;2022-10-17T07:31:09;12.07;;;8.00;;
18443;SDS011;9350;53.176;8.194;2022-10-17T07:33:39;11.32;;;8.48;;
18443;SDS011;9350;53.176;8.194;2022-10-17T07:36:06;12.63;;;7.90;;
18443;SDS011;9350;53.176;8.194;2022-10-17T07:38:34;11.27;;;7.65;;
18443;SDS011;9350;53.176;8.194;2022-10-17T07:41:02;12.32;;;8.40;;
18443;SDS011;9350;53.176;8.194;2022-10-17T07:43:30;13.90;;;8.80;;
18443;SDS011;9350;53.176;8.194;2022-10-17T07:45:57;13.90;;;9.48;;
18443;SDS011;9350;53.176;8.194;2022-10-17T07:48:26;15.60;;;8.35;;
18443;SDS011;9350;53.176;8.194;2022-10-17T07:50:53;14.60;;;8.75;;
18443;SDS011;9350;53.176;8.194;2022-10-17T07:53:20;16.48;;;8.75;;
18443;SDS011;9350;53.176;8.194;2022-10-17T07:55:48;12.88;;;8.27;;
18443;SDS011;9350;53.176;8.194;2022-10-17T07:58:15;14.65;;;8.73;;
18443;SDS011;9350;53.176;8.194;2022-10-17T08:00:42;12.45;;;8.57;;
18443;SDS011;9350;53.176;8.194;2022-10-17T08:03:12;12.05;;;8.60;;
18443;SDS011;9350;53.176;8.194;2022-10-17T08:05:38;15.02;;;8.48;;
18443;SDS011;9350;53.176;8.194;2022-10-17T08:08:05;15.73;;;8.65;;
18443;SDS011;9350;53.176;8.194;2022-10-17T08:10:32;10.93;;;8.35;;
18443;SDS011;9350;53.176;8.194;2022-10-17T08:13:00;14.43;;;8.32;;
18443;SDS011;9350;53.176;8.194;2022-10-17T08:15:27;10.73;;;8.18;;
18443;SDS011;9350;53.176;8.194;2022-10-17T08:17:55;11.70;;;8.07;;
18443;SDS011;9350;53.176;8.194;2022-10-17T08:20:22;14.38;;;7.80;;
18443;SDS011;9350;53.176;8.194;2022-10-17T08:22:51;13.43;;;8.57;;
18443;SDS011;9350;53.176;8.194;2022-10-17T08:25:18;13.80;;;8.55;;
18443;SDS011;9350;53.176;8.194;2022-10-17T08:27:45;12.98;;;8.82;;
18443;SDS011;9350;53.176;8.194;2022-10-17T08:30:13;11.68;;;8.25;;
18443;SDS011;9350;53.176;8.194;2022-10-17T08:32:40;11.43;;;8.52;;
18443;SDS011;9350;53.176;8.194;2022-10-17T08:35:08;13.73;;;8.45;;
18443;SDS011;9350;53.176;8.194;2022-10-17T08:37:35;15.38;;;8.65;;
18443;SDS011;9350;53.176;8.194;2022-10-17T08:40:02;15.40;;;8.50;;
18443;SDS011;9350;53.176;8.194;2022-10-17T08:42:33;15.98;;;9.43;;
18443;SDS011;9350;53.176;8.194;2022-10-17T08:45:17;12.82;;;7.63;;
18443;SDS011;9350;53.176;8.194;2022-10-17T08:47:51;12.95;;;8.90;;
18443;SDS011;9350;53.176;8.194;2022-10-17T08:50:24;11.65;;;8.48;;
18443;SDS011;9350;53.176;8.194;2022-10-17T08:52:56;9.70;;;8.10;;
18443;SDS011;9350;53.176;8.194;2022-10-17T08:55:28;12.95;;;8.20;;
18443;SDS011;9350;53.176;8.194;2022-10-17T08:57:59;17.30;;;8.40;;
18443;SDS011;9350;53.176;8.194;2022-10-17T09:00:28;15.55;;;8.57;;
18443;SDS011;9350;53.176;8.194;2022-10-17T09:03:00;16.73;;;8.25;;
18443;SDS011;9350;53.176;8.194;2022-10-17T09:05:41;13.57;;;7.93;;
18443;SDS011;9350;53.176;8.194;2022-10-17T09:08:17;13.70;;;8.15;;
18443;SDS011;9350;53.176;8.194;2022-10-17T09:10:51;14.93;;;8.43;;
18443;SDS011;9350;53.176;8.194;2022-10-17T09:13:25;15.75;;;7.78;;
18443;SDS011;9350;53.176;8.194;2022-10-17T09:16:06;16.05;;;8.15;;
18443;SDS011;9350;53.176;8.194;2022-10-17T09:18:44;13.65;;;7.72;;
18443;SDS011;9350;53.176;8.194;2022-10-17T09:21:17;11.70;;;7.88;;
18443;SDS011;9350;53.176;8.194;2022-10-17T09:23:49;10.93;;;7.95;;
18443;SDS011;9350;53.176;8.194;2022-10-17T09:26:18;13.68;;;7.72;;
18443;SDS011;9350;53.176;8.194;2022-10-17T09:28:49;14.05;;;8.70;;
18443;SDS011;9350;53.176;8.194;2022-10-17T09:31:21;15.27;;;7.68;;
18443;SDS011;9350;53.176;8.194;2022-10-17T09:33:51;9.88;;;7.47;;
18443;SDS011;9350;53.176;8.194;2022-10-17T09:36:21;11.30;;;7.70;;
18443;SDS011;9350;53.176;8.194;2022-10-17T09:38:51;18.75;;;7.97;;
18443;SDS011;9350;53.176;8.194;2022-10-17T09:41:20;19.20;;;7.97;;
18443;SDS011;9350;53.176;8.194;2022-10-17T09:43:50;15.43;;;7.75;;
18443;SDS011;9350;53.176;8.194;2022-10-17T09:46:24;10.10;;;7.63;;
18443;SDS011;9350;53.176;8.194;2022-10-17T09:48:54;10.75;;;7.82;;
18443;SDS011;9350;53.176;8.194;2022-10-17T09:51:26;12.38;;;7.72;;
18443;SDS011;9350;53.176;8.194;2022-10-17T09:53:54;10.10;;;7.20;;
18443;SDS011;9350;53.176;8.194;2022-10-17T09:56:25;14.73;;;7.72;;
18443;SDS011;9350;53.176;8.194;2022-10-17T09:58:54;17.35;;;7.68;;
18443;SDS011;9350;53.176;8.194;2022-10-17T10:01:24;17.52;;;8.02;;
18443;SDS011;9350;53.176;8.194;2022-10-17T10:04:09;9.30;;;6.72;;
18443;SDS011;9350;53.176;8.194;2022-10-17T10:06:37;10.48;;;7.20;;
18443;SDS011;9350;53.176;8.194;2022-10-17T10:09:04;10.93;;;7.20;;
18443;SDS011;9350;53.176;8.194;2022-10-17T10:11:45;10.65;;;6.80;;
18443;SDS011;9350;53.176;8.194;2022-10-17T10:14:18;12.35;;;7.32;;
18443;SDS011;9350;53.176;8.194;2022-10-17T10:16:48;14.27;;;8.30;;
18443;SDS011;9350;53.176;8.194;2022-10-17T10:19:23;12.88;;;7.75;;
18443;SDS011;9350;53.176;8.194;2022-10-17T10:21:55;12.15;;;7.35;;
18443;SDS011;9350;53.176;8.194;2022-10-17T10:24:23;16.58;;;7.93;;
18443;SDS011;9350;53.176;8.194;2022-10-17T10:26:51;16.83;;;8.35;;
18443;SDS011;9350;53.176;8.194;2022-10-17T10:29:25;18.02;;;8.38;;
18443;SDS011;9350;53.176;8.194;2022-10-17T10:31:56;13.07;;;8.05;;
18443;SDS011;9350;53.176;8.194;2022-10-17T10:34:32;14.13;;;8.10;;
18443;SDS011;9350;53.176;8.194;2022-10-17T10:37:02;10.98;;;8.57;;
18443;SDS011;9350;53.176;8.194;2022-10-17T10:39:35;12.93;;;8.23;;
18443;SDS011;9350;53.176;8.194;2022-10-17T10:42:16;12.52;;;8.30;;
18443;SDS011;9350;53.176;8.194;2022-10-17T10:44:46;14.68;;;8.50;;
18443;SDS011;9350;53.176;8.194;2022-10-17T10:47:17;11.55;;;7.78;;
18443;SDS011;9350;53.176;8.194;2022-10-17T10:49:47;17.17;;;7.90;;
18443;SDS011;9350;53.176;8.194;2022-10-17T10:52:39;13.95;;;8.02;;
18443;SDS011;9350;53.176;8.194;2022-10-17T10:55:14;11.55;;;7.78;;
18443;SDS011;9350;53.176;8.194;2022-10-17T10:57:46;11.57;;;7.50;;
18443;SDS011;9350;53.176;8.194;2022-10-17T11:00:16;12.70;;;8.32;;
18443;SDS011;9350;53.176;8.194;2022-10-17T11:02:50;13.15;;;8.23;;
18443;SDS011;9350;53.176;8.194;2022-10-17T11:05:33;12.18;;;8.13;;
18443;SDS011;9350;53.176;8.194;2022-10-17T11:08:09;11.30;;;8.45;;
18443;SDS011;9350;53.176;8.194;2022-10-17T11:10:43;22.52;;;9.65;;
18443;SDS011;9350;53.176;8.194;2022-10-17T11:13:22;23.95;;;11.57;;
18443;SDS011;9350;53.176;8.194;2022-10-17T11:15:54;18.90;;;11.90;;
18443;SDS011;9350;53.176;8.194;2022-10-17T11:18:29;22.70;;;13.00;;
18443;SDS011;9350;53.176;8.194;2022-10-17T11:21:02;21.40;;;13.40;;
18443;SDS011;9350;53.176;8.194;2022-10-17T11:23:36;20.83;;;13.77;;
18443;SDS011;9350;53.176;8.194;2022-10-17T11:26:10;19.08;;;13.57;;
18443;SDS011;9350;53.176;8.194;2022-10-17T11:28:41;27.77;;;17.27;;
18443;SDS011;9350;53.176;8.194;2022-10-17T11:31:08;34.83;;;17.60;;
18443;SDS011;9350;53.176;8.194;2022-10-17T11:33:40;26.58;;;16.60;;
18443;SDS011;9350;53.176;8.194;2022-10-17T11:36:11;31.98;;;18.23;;
18443;SDS011;9350;53.176;8.194;2022-10-17T11:38:40;31.30;;;19.45;;
18443;SDS011;9350;53.176;8.194;2022-10-17T11:41:15;35.65;;;20.17;;
18443;SDS011;9350;53.176;8.194;2022-10-17T11:43:48;35.53;;;19.60;;
18443;SDS011;9350;53.176;8.194;2022-10-17T11:46:20;39.85;;;19.90;;
18443;SDS011;9350;53.176;8.194;2022-10-17T11:48:54;35.83;;;19.90;;
18443;SDS011;9350;53.176;8.194;2022-10-17T11:51:28;38.20;;;22.08;;
18443;SDS011;9350;53.176;8.194;2022-10-17T11:54:03;39.67;;;21.42;;
18443;SDS011;9350;53.176;8.194;2022-10-17T11:56:38;31.90;;;17.83;;
18443;SDS011;9350;53.176;8.194;2022-10-17T11:59:16;38.50;;;21.15;;
18443;SDS011;9350;53.176;8.194;2022-10-17T12:02:00;34.45;;;20.38;;
18443;SDS011;9350;53.176;8.194;2022-10-17T12:04:39;33.60;;;20.30;;
18443;SDS011;9350;53.176;8.194;2022-10-17T12:07:20;30.02;;;19.25;;
18443;SDS011;9350;53.176;8.194;2022-10-17T12:09:54;38.38;;;21.70;;
18443;SDS011;9350;53.176;8.194;2022-10-17T12:12:27;35.88;;;20.52;;
18443;SDS011;9350;53.176;8.194;2022-10-17T12:14:59;40.80;;;21.25;;
18443;SDS011;9350;53.176;8.194;2022-10-17T12:17:53;43.08;;;21.80;;
18443;SDS011;9350;53.176;8.194;2022-10-17T12:20:27;44.55;;;21.40;;
18443;SDS011;9350;53.176;8.194;2022-10-17T12:23:16;43.85;;;22.98;;
18443;SDS011;9350;53.176;8.194;2022-10-17T12:25:51;44.38;;;22.75;;
18443;SDS011;9350;53.176;8.194;2022-10-17T12:28:26;47.83;;;23.38;;
18443;SDS011;9350;53.176;8.194;2022-10-17T12:30:59;40.13;;;21.70;;
18443;SDS011;9350;53.176;8.194;2022-10-17T12:33:32;42.38;;;21.77;;
18443;SDS011;9350;53.176;8.194;2022-10-17T12:42:47;46.28;;;23.35;;
18443;SDS011;9350;53.176;8.194;2022-10-17T12:48:11;44.33;;;23.73;;
18443;SDS011;9350;53.176;8.194;2022-10-17T12:53:31;42.90;;;24.13;;
18443;SDS011;9350;53.176;8.194;2022-10-17T12:56:05;47.20;;;24.08;;
18443;SDS011;9350;53.176;8.194;2022-10-17T12:58:33;43.28;;;22.75;;
18443;SDS011;9350;53.176;8.194;2022-10-17T13:01:01;44.28;;;23.05;;
18443;SDS011;9350;53.176;8.194;2022-10-17T13:03:30;41.00;;;21.25;;
18443;SDS011;9350;53.176;8.194;2022-10-17T13:05:59;40.88;;;22.05;;
18443;SDS011;9350;53.176;8.194;2022-10-17T13:08:31;37.42;;;19.88;;
18443;SDS011;9350;53.176;8.194;2022-10-17T13:10:59;42.97;;;20.80;;
18443;SDS011;9350;53.176;8.194;2022-10-17T13:13:34;47.58;;;21.23;;
18443;SDS011;9350;53.176;8.194;2022-10-17T13:16:06;41.25;;;20.33;;
18443;SDS011;9350;53.176;8.194;2022-10-17T13:18:33;41.15;;;18.88;;
18443;SDS011;9350;53.176;8.194;2022-10-17T13:21:01;30.67;;;17.70;;
18443;SDS011;9350;53.176;8.194;2022-10-17T13:23:31;32.97;;;16.48;;
18443;SDS011;9350;53.176;8.194;2022-10-17T13:26:09;33.00;;;18.27;;
18443;SDS011;9350;53.176;8.194;2022-10-17T13:28:40;28.95;;;16.98;;
18443;SDS011;9350;53.176;8.194;2022-10-17T13:31:25;31.38;;;16.73;;
18443;SDS011;9350;53.176;8.194;2022-10-17T13:33:54;34.78;;;16.85;;
18443;SDS011;9350;53.176;8.194;2022-10-17T13:36:22;29.60;;;17.08;;
18443;SDS011;9350;53.176;8.194;2022-10-17T13:38:50;30.42;;;15.98;;
18443;SDS011;9350;53.176;8.194;2022-10-17T13:41:19;28.33;;;14.48;;
18443;SDS011;9350;53.176;8.194;2022-10-17T13:43:52;34.78;;;15.95;;
18443;SDS011;9350;53.176;8.194;2022-10-17T13:46:24;27.48;;;14.88;;
18443;SDS011;9350;53.176;8.194;2022-10-17T13:48:53;23.85;;;14.27;;
18443;SDS011;9350;53.176;8.194;2022-10-17T13:51:21;31.02;;;14.30;;
18443;SDS011;9350;53.176;8.194;2022-10-17T13:53:48;26.90;;;14.95;;
18443;SDS011;9350;53.176;8.194;2022-10-17T13:56:17;25.50;;;13.85;;
18443;SDS011;9350;53.176;8.194;2022-10-17T13:58:46;24.75;;;14.90;;
18443;SDS011;9350;53.176;8.194;2022-10-17T14:01:15;29.73;;;16.50;;
18443;SDS011;9350;53.176;8.194;2022-10-17T14:03:44;35.95;;;16.33;;
18443;SDS011;9350;53.176;8.194;2022-10-17T14:06:13;28.00;;;15.30;;
18443;SDS011;9350;53.176;8.194;2022-10-17T14:08:47;24.42;;;13.02;;
18443;SDS011;9350;53.176;8.194;2022-10-17T14:11:21;23.98;;;13.13;;
18443;SDS011;9350;53.176;8.194;2022-10-17T14:13:50;26.10;;;13.82;;
18443;SDS011;9350;53.176;8.194;2022-10-17T14:16:21;24.15;;;12.00;;
18443;SDS011;9350;53.176;8.194;2022-10-17T14:18:49;19.63;;;11.82;;
18443;SDS011;9350;53.176;8.194;2022-10-17T14:21:18;19.30;;;11.35;;
18443;SDS011;9350;53.176;8.194;2022-10-17T14:23:46;21.10;;;11.73;;
18443;SDS011;9350;53.176;8.194;2022-10-17T14:26:14;21.98;;;10.93;;
18443;SDS011;9350;53.176;8.194;2022-10-17T14:28:44;18.27;;;10.85;;
18443;SDS011;9350;53.176;8.194;2022-10-17T14:31:21;21.48;;;11.70;;
18443;SDS011;9350;53.176;8.194;2022-10-17T14:33:56;20.38;;;11.73;;
18443;SDS011;9350;53.176;8.194;2022-10-17T14:36:32;18.92;;;10.95;;
18443;SDS011;9350;53.176;8.194;2022-10-17T14:39:02;20.05;;;11.10;;
18443;SDS011;9350;53.176;8.194;2022-10-17T14:41:31;26.90;;;14.82;;
18443;SDS011;9350;53.176;8.194;2022-10-17T14:43:59;22.63;;;11.57;;
18443;SDS011;9350;53.176;8.194;2022-10-17T14:46:30;21.98;;;10.63;;
18443;SDS011;9350;53.176;8.194;2022-10-17T14:49:00;26.90;;;12.07;;
18443;SDS011;9350;53.176;8.194;2022-10-17T14:51:30;19.75;;;11.05;;
18443;SDS011;9350;53.176;8.194;2022-10-17T14:53:58;18.67;;;11.25;;
18443;SDS011;9350;53.176;8.194;2022-10-17T14:56:32;22.20;;;11.32;;
18443;SDS011;9350;53.176;8.194;2022-10-17T14:59:01;21.38;;;10.73;;
18443;SDS011;9350;53.176;8.194;2022-10-17T15:01:30;19.08;;;9.85;;
18443;SDS011;9350;53.176;8.194;2022-10-17T15:03:58;19.27;;;10.07;;
18443;SDS011;9350;53.176;8.194;2022-10-17T15:06:26;16.50;;;10.35;;
18443;SDS011;9350;53.176;8.194;2022-10-17T15:08:53;20.02;;;10.90;;
18443;SDS011;9350;53.176;8.194;2022-10-17T15:11:20;19.95;;;11.07;;
18443;SDS011;9350;53.176;8.194;2022-10-17T15:13:47;19.50;;;11.20;;
18443;SDS011;9350;53.176;8.194;2022-10-17T15:16:14;23.80;;;11.40;;
18443;SDS011;9350;53.176;8.194;2022-10-17T15:18:45;19.75;;;11.85;;
18443;SDS011;9350;53.176;8.194;2022-10-17T15:21:13;23.25;;;12.40;;